sensor_id;sensor_type;location;lat;lon;timestamp;P1;durP1;ratioP1;P2;durP2;ratioP2
2838;SDS011;1427;48.510;9.060;2023-07-24T00:01:38;49.57;;;3.30;;
2838;SDS011;1427;48.510;9.060;2023-07-24T00:04:07;47.60;;;2.60;;
2838;SDS011;1427;48.510;9.060;2023-07-24T00:06:35;50.97;;;3.10;;
2838;SDS011;1427;48.510;9.060;2023-07-24T00:09:03;52.57;;;3.80;;
2838;SDS011;1427;48.510;9.060;2023-07-24T00:11:33;53.87;;;3.83;;
2838;SDS011;1427;48.510;9.060;2023-07-24T00:14:01;50.90;;;3.40;;
2838;SDS011;1427;48.510;9.060;2023-07-24T00:16:29;49.53;;;3.20;;
2838;SDS011;1427;48.510;9.060;2023-07-24T00:18:58;50.80;;;2.97;;
2838;SDS011;1427;48.510;9.060;2023-07-24T00:21:26;53.03;;;3.47;;
2838;SDS011;1427;48.510;9.060;2023-07-24T00:23:54;48.80;;;3.53;;
2838;SDS011;1427;48.510;9.060;2023-07-24T00:26:22;50.00;;;3.20;;
2838;SDS011;1427;48.510;9.060;2023-07-24T00:28:52;48.80;;;3.20;;
2838;SDS011;1427;48.510;9.060;2023-07-24T00:31:20;51.10;;;3.20;;
2838;SDS011;1427;48.510;9.060;2023-07-24T00:33:48;49.63;;;3.17;;
2838;SDS011;1427;48.510;9.060;2023-07-24T00:36:16;49.60;;;3.00;;
2838;SDS011;1427;48.510;9.060;2023-07-24T00:38:44;54.27;;;3.43;;
2838;SDS011;1427;48.510;9.060;2023-07-24T00:41:12;52.20;;;3.40;;
2838;SDS011;1427;48.510;9.060;2023-07-24T00:43:40;50.03;;;3.43;;
2838;SDS011;1427;48.510;9.060;2023-07-24T00:46:10;49.73;;;3.53;;
2838;SDS011;1427;48.510;9.060;2023-07-24T00:48:38;50.80;;;3.60;;
2838;SDS011;1427;48.510;9.060;2023-07-24T00:51:07;52.27;;;3.90;;
2838;SDS011;1427;48.510;9.060;2023-07-24T00:53:35;49.77;;;3.27;;
2838;SDS011;1427;48.510;9.060;2023-07-24T00:56:03;48.07;;;3.17;;
2838;SDS011;1427;48.510;9.060;2023-07-24T00:58:32;49.60;;;3.33;;
2838;SDS011;1427;48.510;9.060;2023-07-24T01:01:04;50.07;;;2.90;;
2838;SDS011;1427;48.510;9.060;2023-07-24T01:03:34;50.97;;;3.30;;
2838;SDS011;1427;48.510;9.060;2023-07-24T01:06:03;52.70;;;3.80;;
2838;SDS011;1427;48.510;9.060;2023-07-24T01:08:31;49.00;;;3.17;;
2838;SDS011;1427;48.510;9.060;2023-07-24T01:10:59;55.67;;;3.73;;
2838;SDS011;1427;48.510;9.060;2023-07-24T01:13:32;52.00;;;2.93;;
2838;SDS011;1427;48.510;9.060;2023-07-24T01:16:07;50.07;;;3.13;;
2838;SDS011;1427;48.510;9.060;2023-07-24T01:18:40;50.20;;;2.80;;
2838;SDS011;1427;48.510;9.060;2023-07-24T01:21:11;49.87;;;3.40;;
2838;SDS011;1427;48.510;9.060;2023-07-24T01:23:48;51.73;;;3.37;;
2838;SDS011;1427;48.510;9.060;2023-07-24T01:26:27;50.37;;;2.90;;
2838;SDS011;1427;48.510;9.060;2023-07-24T01:28:56;55.60;;;3.67;;
2838;SDS011;1427;48.510;9.060;2023-07-24T01:31:24;53.73;;;3.17;;
2838;SDS011;1427;48.510;9.060;2023-07-24T01:33:52;50.70;;;3.87;;
2838;SDS011;1427;48.510;9.060;2023-07-24T01:36:20;49.70;;;3.27;;
2838;SDS011;1427;48.510;9.060;2023-07-24T01:38:48;51.30;;;3.63;;
2838;SDS011;1427;48.510;9.060;2023-07-24T01:41:18;48.40;;;3.17;;
2838;SDS011;1427;48.510;9.060;2023-07-24T01:43:48;51.67;;;3.53;;
2838;SDS011;1427;48.510;9.060;2023-07-24T01:46:16;53.90;;;3.87;;
2838;SDS011;1427;48.510;9.060;2023-07-24T01:48:44;50.10;;;3.37;;
2838;SDS011;1427;48.510;9.060;2023-07-24T01:51:13;52.03;;;3.30;;
2838;SDS011;1427;48.510;9.060;2023-07-24T01:53:41;48.47;;;2.63;;
2838;SDS011;1427;48.510;9.060;2023-07-24T01:56:09;50.00;;;3.47;;
2838;SDS011;1427;48.510;9.060;2023-07-24T01:58:37;48.17;;;3.03;;
2838;SDS011;1427;48.510;9.060;2023-07-24T02:01:07;48.90;;;3.30;;
2838;SDS011;1427;48.510;9.060;2023-07-24T02:03:35;51.30;;;3.47;;
2838;SDS011;1427;48.510;9.060;2023-07-24T02:06:05;49.83;;;3.10;;
2838;SDS011;1427;48.510;9.060;2023-07-24T02:08:33;50.43;;;3.73;;
2838;SDS011;1427;48.510;9.060;2023-07-24T02:11:02;50.70;;;3.37;;
2838;SDS011;1427;48.510;9.060;2023-07-24T02:13:30;47.70;;;2.57;;
2838;SDS011;1427;48.510;9.060;2023-07-24T02:15:58;49.37;;;3.50;;
2838;SDS011;1427;48.510;9.060;2023-07-24T02:18:27;50.23;;;3.53;;
2838;SDS011;1427;48.510;9.060;2023-07-24T02:20:55;50.70;;;3.30;;
2838;SDS011;1427;48.510;9.060;2023-07-24T02:23:23;49.47;;;3.10;;
2838;SDS011;1427;48.510;9.060;2023-07-24T02:25:52;55.60;;;3.43;;
2838;SDS011;1427;48.510;9.060;2023-07-24T02:28:20;50.10;;;3.47;;
2838;SDS011;1427;48.510;9.060;2023-07-24T02:30:48;53.57;;;4.17;;
2838;SDS011;1427;48.510;9.060;2023-07-24T02:33:17;51.03;;;3.63;;
2838;SDS011;1427;48.510;9.060;2023-07-24T02:35:47;50.70;;;3.70;;
2838;SDS011;1427;48.510;9.060;2023-07-24T02:38:15;51.00;;;2.77;;
2838;SDS011;1427;48.510;9.060;2023-07-24T02:40:43;50.30;;;3.47;;
2838;SDS011;1427;48.510;9.060;2023-07-24T02:43:12;50.03;;;3.40;;
2838;SDS011;1427;48.510;9.060;2023-07-24T02:45:41;50.37;;;3.00;;
2838;SDS011;1427;48.510;9.060;2023-07-24T02:48:09;48.97;;;3.30;;
2838;SDS011;1427;48.510;9.060;2023-07-24T02:50:37;52.43;;;3.70;;
2838;SDS011;1427;48.510;9.060;2023-07-24T02:53:07;53.50;;;4.27;;
2838;SDS011;1427;48.510;9.060;2023-07-24T02:55:35;51.47;;;3.97;;
2838;SDS011;1427;48.510;9.060;2023-07-24T02:58:03;49.57;;;3.40;;
2838;SDS011;1427;48.510;9.060;2023-07-24T03:00:31;51.63;;;3.53;;
2838;SDS011;1427;48.510;9.060;2023-07-24T03:02:59;49.60;;;3.20;;
2838;SDS011;1427;48.510;9.060;2023-07-24T03:05:28;51.13;;;3.13;;
2838;SDS011;1427;48.510;9.060;2023-07-24T03:07:56;51.00;;;3.57;;
2838;SDS011;1427;48.510;9.060;2023-07-24T03:10:26;51.23;;;3.20;;
2838;SDS011;1427;48.510;9.060;2023-07-24T03:12:54;55.13;;;3.77;;
2838;SDS011;1427;48.510;9.060;2023-07-24T03:15:22;51.40;;;3.47;;
2838;SDS011;1427;48.510;9.060;2023-07-24T03:17:50;51.27;;;3.63;;
2838;SDS011;1427;48.510;9.060;2023-07-24T03:20:19;49.50;;;3.50;;
2838;SDS011;1427;48.510;9.060;2023-07-24T03:22:48;52.63;;;3.77;;
2838;SDS011;1427;48.510;9.060;2023-07-24T03:25:16;51.27;;;3.30;;
2838;SDS011;1427;48.510;9.060;2023-07-24T03:27:45;53.53;;;2.97;;
2838;SDS011;1427;48.510;9.060;2023-07-24T03:30:14;52.90;;;3.40;;
2838;SDS011;1427;48.510;9.060;2023-07-24T03:32:42;50.37;;;4.00;;
2838;SDS011;1427;48.510;9.060;2023-07-24T03:35:10;50.33;;;3.20;;
2838;SDS011;1427;48.510;9.060;2023-07-24T03:37:38;55.77;;;3.30;;
2838;SDS011;1427;48.510;9.060;2023-07-24T03:40:07;49.90;;;3.53;;
2838;SDS011;1427;48.510;9.060;2023-07-24T03:42:35;53.30;;;2.97;;
2838;SDS011;1427;48.510;9.060;2023-07-24T03:45:06;50.63;;;3.23;;
2838;SDS011;1427;48.510;9.060;2023-07-24T03:47:35;51.23;;;3.77;;
2838;SDS011;1427;48.510;9.060;2023-07-24T03:50:05;49.17;;;3.17;;
2838;SDS011;1427;48.510;9.060;2023-07-24T03:52:34;49.67;;;2.90;;
2838;SDS011;1427;48.510;9.060;2023-07-24T03:55:02;55.80;;;8.27;;
2838;SDS011;1427;48.510;9.060;2023-07-24T03:57:30;56.37;;;8.20;;
2838;SDS011;1427;48.510;9.060;2023-07-24T03:59:58;58.13;;;7.43;;
2838;SDS011;1427;48.510;9.060;2023-07-24T04:02:28;52.47;;;6.70;;
2838;SDS011;1427;48.510;9.060;2023-07-24T04:04:56;50.77;;;5.50;;
2838;SDS011;1427;48.510;9.060;2023-07-24T04:07:24;53.80;;;7.00;;
2838;SDS011;1427;48.510;9.060;2023-07-24T04:09:52;54.37;;;7.03;;
2838;SDS011;1427;48.510;9.060;2023-07-24T04:12:20;57.67;;;6.37;;
2838;SDS011;1427;48.510;9.060;2023-07-24T04:14:49;49.90;;;4.60;;
2838;SDS011;1427;48.510;9.060;2023-07-24T04:17:17;52.93;;;6.20;;
2838;SDS011;1427;48.510;9.060;2023-07-24T04:19:46;54.70;;;7.37;;
2838;SDS011;1427;48.510;9.060;2023-07-24T04:22:14;50.20;;;6.07;;
2838;SDS011;1427;48.510;9.060;2023-07-24T04:24:42;52.80;;;8.10;;
2838;SDS011;1427;48.510;9.060;2023-07-24T04:27:11;52.90;;;6.67;;
2838;SDS011;1427;48.510;9.060;2023-07-24T04:29:39;53.90;;;5.77;;
2838;SDS011;1427;48.510;9.060;2023-07-24T04:32:07;51.10;;;5.77;;
2838;SDS011;1427;48.510;9.060;2023-07-24T04:34:35;51.43;;;6.70;;
2838;SDS011;1427;48.510;9.060;2023-07-24T04:37:05;54.00;;;7.10;;
2838;SDS011;1427;48.510;9.060;2023-07-24T04:39:33;52.23;;;5.83;;
2838;SDS011;1427;48.510;9.060;2023-07-24T04:42:01;51.90;;;5.93;;
2838;SDS011;1427;48.510;9.060;2023-07-24T04:44:30;52.10;;;5.93;;
2838;SDS011;1427;48.510;9.060;2023-07-24T04:46:58;54.03;;;7.97;;
2838;SDS011;1427;48.510;9.060;2023-07-24T04:49:28;54.03;;;6.03;;
2838;SDS011;1427;48.510;9.060;2023-07-24T04:51:56;53.83;;;6.50;;
2838;SDS011;1427;48.510;9.060;2023-07-24T04:54:26;56.33;;;6.60;;
2838;SDS011;1427;48.510;9.060;2023-07-24T04:56:54;52.27;;;6.37;;
2838;SDS011;1427;48.510;9.060;2023-07-24T04:59:22;53.27;;;6.37;;
2838;SDS011;1427;48.510;9.060;2023-07-24T05:01:50;53.80;;;6.70;;
2838;SDS011;1427;48.510;9.060;2023-07-24T05:04:19;54.97;;;5.93;;
2838;SDS011;1427;48.510;9.060;2023-07-24T05:06:47;54.80;;;7.10;;
2838;SDS011;1427;48.510;9.060;2023-07-24T05:09:15;56.93;;;7.50;;
2838;SDS011;1427;48.510;9.060;2023-07-24T05:11:45;53.80;;;5.67;;
2838;SDS011;1427;48.510;9.060;2023-07-24T05:14:13;61.57;;;8.03;;
2838;SDS011;1427;48.510;9.060;2023-07-24T05:16:41;53.40;;;6.17;;
2838;SDS011;1427;48.510;9.060;2023-07-24T05:19:09;57.17;;;7.03;;
2838;SDS011;1427;48.510;9.060;2023-07-24T05:21:37;53.47;;;6.77;;
2838;SDS011;1427;48.510;9.060;2023-07-24T05:24:05;53.00;;;6.67;;
2838;SDS011;1427;48.510;9.060;2023-07-24T05:26:34;53.27;;;5.93;;
2838;SDS011;1427;48.510;9.060;2023-07-24T05:29:03;56.40;;;6.27;;
2838;SDS011;1427;48.510;9.060;2023-07-24T05:31:31;54.27;;;5.93;;
2838;SDS011;1427;48.510;9.060;2023-07-24T05:34:01;50.80;;;5.67;;
2838;SDS011;1427;48.510;9.060;2023-07-24T05:36:31;54.60;;;7.00;;
2838;SDS011;1427;48.510;9.060;2023-07-24T05:38:59;53.07;;;5.83;;
2838;SDS011;1427;48.510;9.060;2023-07-24T05:41:27;52.20;;;6.43;;
2838;SDS011;1427;48.510;9.060;2023-07-24T05:43:55;52.10;;;5.90;;
2838;SDS011;1427;48.510;9.060;2023-07-24T05:46:25;54.83;;;5.90;;
2838;SDS011;1427;48.510;9.060;2023-07-24T05:48:53;52.23;;;5.67;;
2838;SDS011;1427;48.510;9.060;2023-07-24T05:51:22;53.10;;;6.93;;
2838;SDS011;1427;48.510;9.060;2023-07-24T05:53:51;55.00;;;6.30;;
2838;SDS011;1427;48.510;9.060;2023-07-24T05:56:19;53.97;;;6.57;;
2838;SDS011;1427;48.510;9.060;2023-07-24T05:58:47;55.57;;;8.10;;
2838;SDS011;1427;48.510;9.060;2023-07-24T06:01:15;58.87;;;6.60;;
2838;SDS011;1427;48.510;9.060;2023-07-24T06:03:44;54.27;;;7.80;;
2838;SDS011;1427;48.510;9.060;2023-07-24T06:06:13;57.60;;;7.20;;
2838;SDS011;1427;48.510;9.060;2023-07-24T06:08:41;54.60;;;7.17;;
2838;SDS011;1427;48.510;9.060;2023-07-24T06:11:09;54.77;;;6.87;;
2838;SDS011;1427;48.510;9.060;2023-07-24T06:13:37;55.73;;;6.10;;
2838;SDS011;1427;48.510;9.060;2023-07-24T06:16:05;53.90;;;5.57;;
2838;SDS011;1427;48.510;9.060;2023-07-24T06:18:34;52.97;;;5.50;;
2838;SDS011;1427;48.510;9.060;2023-07-24T06:21:04;53.30;;;6.50;;
2838;SDS011;1427;48.510;9.060;2023-07-24T06:23:32;51.97;;;6.07;;
2838;SDS011;1427;48.510;9.060;2023-07-24T06:26:00;51.90;;;7.57;;
2838;SDS011;1427;48.510;9.060;2023-07-24T06:28:28;61.80;;;7.53;;
2838;SDS011;1427;48.510;9.060;2023-07-24T06:30:57;60.03;;;7.80;;
2838;SDS011;1427;48.510;9.060;2023-07-24T06:33:25;54.03;;;7.00;;
2838;SDS011;1427;48.510;9.060;2023-07-24T06:35:53;53.93;;;6.80;;
2838;SDS011;1427;48.510;9.060;2023-07-24T06:38:23;54.97;;;7.23;;
2838;SDS011;1427;48.510;9.060;2023-07-24T06:40:51;54.30;;;6.57;;
2838;SDS011;1427;48.510;9.060;2023-07-24T06:43:19;55.73;;;7.20;;
2838;SDS011;1427;48.510;9.060;2023-07-24T06:45:47;54.20;;;6.00;;
2838;SDS011;1427;48.510;9.060;2023-07-24T06:48:15;52.30;;;6.03;;
2838;SDS011;1427;48.510;9.060;2023-07-24T06:50:43;55.93;;;7.43;;
2838;SDS011;1427;48.510;9.060;2023-07-24T06:53:11;52.47;;;7.03;;
2838;SDS011;1427;48.510;9.060;2023-07-24T06:55:42;53.30;;;7.07;;
2838;SDS011;1427;48.510;9.060;2023-07-24T06:58:10;50.80;;;5.13;;
2838;SDS011;1427;48.510;9.060;2023-07-24T07:00:38;51.97;;;6.57;;
2838;SDS011;1427;48.510;9.060;2023-07-24T07:03:06;50.80;;;5.70;;
2838;SDS011;1427;48.510;9.060;2023-07-24T07:05:34;54.33;;;6.87;;
2838;SDS011;1427;48.510;9.060;2023-07-24T07:08:03;53.70;;;6.33;;
2838;SDS011;1427;48.510;9.060;2023-07-24T07:10:31;52.90;;;6.53;;
2838;SDS011;1427;48.510;9.060;2023-07-24T07:13:00;55.40;;;6.70;;
2838;SDS011;1427;48.510;9.060;2023-07-24T07:15:29;54.10;;;6.50;;
2838;SDS011;1427;48.510;9.060;2023-07-24T07:17:57;53.13;;;6.60;;
2838;SDS011;1427;48.510;9.060;2023-07-24T07:20:25;52.80;;;6.73;;
2838;SDS011;1427;48.510;9.060;2023-07-24T07:22:53;55.13;;;6.53;;
2838;SDS011;1427;48.510;9.060;2023-07-24T07:25:21;53.07;;;6.30;;
2838;SDS011;1427;48.510;9.060;2023-07-24T07:27:49;58.80;;;8.47;;
2838;SDS011;1427;48.510;9.060;2023-07-24T07:30:18;58.60;;;6.30;;
2838;SDS011;1427;48.510;9.060;2023-07-24T07:32:46;54.20;;;6.07;;
2838;SDS011;1427;48.510;9.060;2023-07-24T07:35:15;53.03;;;7.10;;
2838;SDS011;1427;48.510;9.060;2023-07-24T07:37:43;51.77;;;6.60;;
2838;SDS011;1427;48.510;9.060;2023-07-24T07:40:11;55.23;;;6.50;;
2838;SDS011;1427;48.510;9.060;2023-07-24T07:42:39;54.73;;;6.87;;
2838;SDS011;1427;48.510;9.060;2023-07-24T07:45:10;50.70;;;6.37;;
2838;SDS011;1427;48.510;9.060;2023-07-24T07:47:39;51.70;;;6.43;;
2838;SDS011;1427;48.510;9.060;2023-07-24T07:50:08;55.20;;;7.37;;
2838;SDS011;1427;48.510;9.060;2023-07-24T07:52:36;54.90;;;7.13;;
2838;SDS011;1427;48.510;9.060;2023-07-24T07:55:04;51.87;;;6.33;;
2838;SDS011;1427;48.510;9.060;2023-07-24T07:57:34;58.73;;;7.20;;
2838;SDS011;1427;48.510;9.060;2023-07-24T08:00:02;53.57;;;7.60;;
2838;SDS011;1427;48.510;9.060;2023-07-24T08:02:32;54.80;;;7.27;;
2838;SDS011;1427;48.510;9.060;2023-07-24T08:05:02;55.10;;;7.73;;
2838;SDS011;1427;48.510;9.060;2023-07-24T08:07:41;53.23;;;6.60;;
2838;SDS011;1427;48.510;9.060;2023-07-24T08:10:09;52.37;;;7.00;;
2838;SDS011;1427;48.510;9.060;2023-07-24T08:12:42;53.03;;;6.03;;
2838;SDS011;1427;48.510;9.060;2023-07-24T08:15:10;53.57;;;7.03;;
2838;SDS011;1427;48.510;9.060;2023-07-24T08:17:38;54.50;;;6.27;;
2838;SDS011;1427;48.510;9.060;2023-07-24T08:20:08;55.30;;;6.17;;
2838;SDS011;1427;48.510;9.060;2023-07-24T08:22:37;52.43;;;6.20;;
2838;SDS011;1427;48.510;9.060;2023-07-24T08:25:05;53.77;;;6.53;;
2838;SDS011;1427;48.510;9.060;2023-07-24T08:27:34;51.63;;;6.47;;
2838;SDS011;1427;48.510;9.060;2023-07-24T08:30:20;51.40;;;5.87;;
2838;SDS011;1427;48.510;9.060;2023-07-24T08:32:48;52.37;;;6.47;;
2838;SDS011;1427;48.510;9.060;2023-07-24T08:35:18;56.23;;;5.33;;
2838;SDS011;1427;48.510;9.060;2023-07-24T08:37:46;52.17;;;5.77;;
2838;SDS011;1427;48.510;9.060;2023-07-24T08:40:15;49.97;;;6.10;;
2838;SDS011;1427;48.510;9.060;2023-07-24T08:42:43;53.30;;;5.90;;
2838;SDS011;1427;48.510;9.060;2023-07-24T08:45:12;51.30;;;5.33;;
2838;SDS011;1427;48.510;9.060;2023-07-24T08:47:41;51.93;;;5.43;;
2838;SDS011;1427;48.510;9.060;2023-07-24T08:50:10;51.47;;;4.67;;
2838;SDS011;1427;48.510;9.060;2023-07-24T08:52:42;50.50;;;5.23;;
2838;SDS011;1427;48.510;9.060;2023-07-24T08:55:13;50.30;;;5.60;;
2838;SDS011;1427;48.510;9.060;2023-07-24T08:57:41;51.30;;;6.50;;
2838;SDS011;1427;48.510;9.060;2023-07-24T09:00:09;54.00;;;5.80;;
2838;SDS011;1427;48.510;9.060;2023-07-24T09:02:38;57.93;;;7.13;;
2838;SDS011;1427;48.510;9.060;2023-07-24T09:05:07;51.57;;;6.43;;
2838;SDS011;1427;48.510;9.060;2023-07-24T09:07:36;52.17;;;5.57;;
2838;SDS011;1427;48.510;9.060;2023-07-24T09:10:07;51.47;;;5.63;;
2838;SDS011;1427;48.510;9.060;2023-07-24T09:12:37;49.60;;;5.23;;
2838;SDS011;1427;48.510;9.060;2023-07-24T09:15:09;52.67;;;5.73;;
2838;SDS011;1427;48.510;9.060;2023-07-24T09:17:46;51.67;;;5.70;;
2838;SDS011;1427;48.510;9.060;2023-07-24T09:20:15;55.27;;;5.90;;
2838;SDS011;1427;48.510;9.060;2023-07-24T09:22:57;50.53;;;5.43;;
2838;SDS011;1427;48.510;9.060;2023-07-24T09:25:32;51.47;;;6.00;;
2838;SDS011;1427;48.510;9.060;2023-07-24T09:28:08;54.80;;;7.63;;
2838;SDS011;1427;48.510;9.060;2023-07-24T09:30:37;53.30;;;6.23;;
2838;SDS011;1427;48.510;9.060;2023-07-24T09:33:06;52.40;;;6.73;;
2838;SDS011;1427;48.510;9.060;2023-07-24T09:35:34;54.67;;;7.37;;
2838;SDS011;1427;48.510;9.060;2023-07-24T09:38:03;56.37;;;7.13;;
2838;SDS011;1427;48.510;9.060;2023-07-24T09:40:40;50.00;;;5.80;;
2838;SDS011;1427;48.510;9.060;2023-07-24T09:43:16;55.10;;;6.07;;
2838;SDS011;1427;48.510;9.060;2023-07-24T09:46:04;52.33;;;5.77;;
2838;SDS011;1427;48.510;9.060;2023-07-24T09:48:33;50.17;;;6.07;;
2838;SDS011;1427;48.510;9.060;2023-07-24T09:51:05;50.97;;;5.97;;
2838;SDS011;1427;48.510;9.060;2023-07-24T09:53:38;50.40;;;5.83;;
2838;SDS011;1427;48.510;9.060;2023-07-24T09:56:11;51.50;;;6.20;;
2838;SDS011;1427;48.510;9.060;2023-07-24T09:58:41;52.33;;;5.87;;
2838;SDS011;1427;48.510;9.060;2023-07-24T10:01:12;52.67;;;8.07;;
2838;SDS011;1427;48.510;9.060;2023-07-24T10:03:40;61.03;;;7.80;;
2838;SDS011;1427;48.510;9.060;2023-07-24T10:06:12;52.73;;;6.43;;
2838;SDS011;1427;48.510;9.060;2023-07-24T10:08:42;55.00;;;7.03;;
2838;SDS011;1427;48.510;9.060;2023-07-24T10:11:12;54.30;;;6.63;;
2838;SDS011;1427;48.510;9.060;2023-07-24T10:13:41;53.20;;;6.53;;
2838;SDS011;1427;48.510;9.060;2023-07-24T10:16:09;51.10;;;5.53;;
2838;SDS011;1427;48.510;9.060;2023-07-24T10:18:41;53.83;;;6.60;;
2838;SDS011;1427;48.510;9.060;2023-07-24T10:21:11;51.40;;;6.70;;
2838;SDS011;1427;48.510;9.060;2023-07-24T10:23:41;55.30;;;7.70;;
2838;SDS011;1427;48.510;9.060;2023-07-24T10:26:11;55.07;;;6.30;;
2838;SDS011;1427;48.510;9.060;2023-07-24T10:28:40;54.30;;;6.50;;
2838;SDS011;1427;48.510;9.060;2023-07-24T10:31:18;51.40;;;5.60;;
2838;SDS011;1427;48.510;9.060;2023-07-24T10:33:50;53.10;;;6.27;;
2838;SDS011;1427;48.510;9.060;2023-07-24T10:36:19;50.80;;;5.97;;
2838;SDS011;1427;48.510;9.060;2023-07-24T10:38:52;56.73;;;6.10;;
2838;SDS011;1427;48.510;9.060;2023-07-24T10:41:22;52.90;;;5.90;;
2838;SDS011;1427;48.510;9.060;2023-07-24T10:44:01;53.20;;;6.30;;
2838;SDS011;1427;48.510;9.060;2023-07-24T10:46:35;56.00;;;6.80;;
2838;SDS011;1427;48.510;9.060;2023-07-24T10:49:04;54.37;;;6.20;;
2838;SDS011;1427;48.510;9.060;2023-07-24T10:51:33;50.13;;;5.60;;
2838;SDS011;1427;48.510;9.060;2023-07-24T10:54:04;52.20;;;6.40;;
2838;SDS011;1427;48.510;9.060;2023-07-24T10:56:34;52.43;;;6.13;;
2838;SDS011;1427;48.510;9.060;2023-07-24T10:59:04;50.67;;;5.50;;
2838;SDS011;1427;48.510;9.060;2023-07-24T11:01:33;52.07;;;6.30;;
2838;SDS011;1427;48.510;9.060;2023-07-24T11:04:02;50.87;;;6.40;;
2838;SDS011;1427;48.510;9.060;2023-07-24T11:06:30;56.20;;;6.03;;
2838;SDS011;1427;48.510;9.060;2023-07-24T11:08:59;52.60;;;6.00;;
2838;SDS011;1427;48.510;9.060;2023-07-24T11:11:27;52.87;;;6.17;;
2838;SDS011;1427;48.510;9.060;2023-07-24T11:13:58;54.10;;;5.97;;
2838;SDS011;1427;48.510;9.060;2023-07-24T11:16:28;49.47;;;5.00;;
2838;SDS011;1427;48.510;9.060;2023-07-24T11:18:58;52.10;;;6.20;;
2838;SDS011;1427;48.510;9.060;2023-07-24T11:21:26;54.30;;;6.07;;
2838;SDS011;1427;48.510;9.060;2023-07-24T11:23:56;51.67;;;5.43;;
2838;SDS011;1427;48.510;9.060;2023-07-24T11:26:25;50.93;;;5.60;;
2838;SDS011;1427;48.510;9.060;2023-07-24T11:28:54;52.40;;;6.23;;
2838;SDS011;1427;48.510;9.060;2023-07-24T11:31:23;50.90;;;6.30;;
2838;SDS011;1427;48.510;9.060;2023-07-24T11:33:52;52.87;;;6.73;;
2838;SDS011;1427;48.510;9.060;2023-07-24T11:36:21;51.57;;;6.20;;
2838;SDS011;1427;48.510;9.060;2023-07-24T11:38:49;50.70;;;5.43;;
2838;SDS011;1427;48.510;9.060;2023-07-24T11:41:17;50.63;;;6.53;;
2838;SDS011;1427;48.510;9.060;2023-07-24T11:43:46;52.70;;;6.53;;
2838;SDS011;1427;48.510;9.060;2023-07-24T11:46:26;53.70;;;6.60;;
2838;SDS011;1427;48.510;9.060;2023-07-24T11:48:55;51.47;;;5.50;;
2838;SDS011;1427;48.510;9.060;2023-07-24T11:51:24;51.10;;;6.17;;
2838;SDS011;1427;48.510;9.060;2023-07-24T11:54:03;51.53;;;5.90;;
2838;SDS011;1427;48.510;9.060;2023-07-24T11:56:33;53.63;;;6.40;;
2838;SDS011;1427;48.510;9.060;2023-07-24T11:59:11;51.27;;;5.90;;
2838;SDS011;1427;48.510;9.060;2023-07-24T12:01:40;51.13;;;7.07;;
2838;SDS011;1427;48.510;9.060;2023-07-24T12:04:12;50.07;;;5.40;;
2838;SDS011;1427;48.510;9.060;2023-07-24T12:06:41;51.57;;;5.90;;
2838;SDS011;1427;48.510;9.060;2023-07-24T12:09:10;50.67;;;6.30;;
2838;SDS011;1427;48.510;9.060;2023-07-24T12:11:39;53.30;;;6.00;;
2838;SDS011;1427;48.510;9.060;2023-07-24T12:14:11;49.17;;;5.10;;
2838;SDS011;1427;48.510;9.060;2023-07-24T12:16:42;49.87;;;5.87;;
2838;SDS011;1427;48.510;9.060;2023-07-24T12:19:11;50.23;;;5.63;;
2838;SDS011;1427;48.510;9.060;2023-07-24T12:21:39;50.40;;;6.10;;
2838;SDS011;1427;48.510;9.060;2023-07-24T12:24:07;52.93;;;6.97;;
2838;SDS011;1427;48.510;9.060;2023-07-24T12:26:34;49.30;;;5.10;;
2838;SDS011;1427;48.510;9.060;2023-07-24T12:29:02;49.77;;;5.70;;
2838;SDS011;1427;48.510;9.060;2023-07-24T12:31:30;53.00;;;5.20;;
2838;SDS011;1427;48.510;9.060;2023-07-24T12:34:00;50.07;;;5.73;;
2838;SDS011;1427;48.510;9.060;2023-07-24T12:36:28;55.47;;;5.53;;
2838;SDS011;1427;48.510;9.060;2023-07-24T12:38:56;54.47;;;5.70;;
2838;SDS011;1427;48.510;9.060;2023-07-24T12:41:24;49.97;;;5.30;;
2838;SDS011;1427;48.510;9.060;2023-07-24T12:43:52;52.07;;;5.67;;
2838;SDS011;1427;48.510;9.060;2023-07-24T12:46:21;51.40;;;6.80;;
2838;SDS011;1427;48.510;9.060;2023-07-24T12:48:49;50.10;;;4.93;;
2838;SDS011;1427;48.510;9.060;2023-07-24T12:51:18;50.90;;;6.97;;
2838;SDS011;1427;48.510;9.060;2023-07-24T12:53:46;55.67;;;5.37;;
2838;SDS011;1427;48.510;9.060;2023-07-24T12:56:34;50.37;;;5.20;;
2838;SDS011;1427;48.510;9.060;2023-07-24T12:59:02;51.77;;;6.10;;
2838;SDS011;1427;48.510;9.060;2023-07-24T13:01:31;49.43;;;4.87;;
2838;SDS011;1427;48.510;9.060;2023-07-24T13:04:00;49.60;;;5.53;;
2838;SDS011;1427;48.510;9.060;2023-07-24T13:06:29;49.17;;;5.07;;
2838;SDS011;1427;48.510;9.060;2023-07-24T13:08:58;52.50;;;6.17;;
2838;SDS011;1427;48.510;9.060;2023-07-24T13:11:26;48.47;;;4.90;;
2838;SDS011;1427;48.510;9.060;2023-07-24T13:13:55;53.57;;;6.80;;
2838;SDS011;1427;48.510;9.060;2023-07-24T13:16:24;51.00;;;5.57;;
2838;SDS011;1427;48.510;9.060;2023-07-24T13:18:52;50.60;;;5.80;;
2838;SDS011;1427;48.510;9.060;2023-07-24T13:21:20;49.87;;;5.37;;
2838;SDS011;1427;48.510;9.060;2023-07-24T13:23:50;49.10;;;5.50;;
2838;SDS011;1427;48.510;9.060;2023-07-24T13:26:19;52.27;;;5.67;;
2838;SDS011;1427;48.510;9.060;2023-07-24T13:28:47;49.27;;;5.73;;
2838;SDS011;1427;48.510;9.060;2023-07-24T13:31:15;48.80;;;4.63;;
2838;SDS011;1427;48.510;9.060;2023-07-24T13:33:45;50.77;;;6.03;;
2838;SDS011;1427;48.510;9.060;2023-07-24T13:36:14;48.57;;;4.43;;
2838;SDS011;1427;48.510;9.060;2023-07-24T13:38:42;49.07;;;5.17;;
2838;SDS011;1427;48.510;9.060;2023-07-24T13:41:11;52.10;;;5.50;;
2838;SDS011;1427;48.510;9.060;2023-07-24T13:43:39;49.80;;;5.57;;
2838;SDS011;1427;48.510;9.060;2023-07-24T13:46:07;50.27;;;5.27;;
2838;SDS011;1427;48.510;9.060;2023-07-24T13:48:35;49.63;;;4.93;;
2838;SDS011;1427;48.510;9.060;2023-07-24T13:51:03;50.47;;;5.83;;
2838;SDS011;1427;48.510;9.060;2023-07-24T13:53:32;52.57;;;5.10;;
2838;SDS011;1427;48.510;9.060;2023-07-24T13:56:00;50.73;;;5.13;;
2838;SDS011;1427;48.510;9.060;2023-07-24T13:58:30;50.83;;;6.10;;
2838;SDS011;1427;48.510;9.060;2023-07-24T14:00:58;49.37;;;4.87;;
2838;SDS011;1427;48.510;9.060;2023-07-24T14:03:26;52.87;;;7.37;;
2838;SDS011;1427;48.510;9.060;2023-07-24T14:05:56;50.53;;;5.60;;
2838;SDS011;1427;48.510;9.060;2023-07-24T14:08:24;51.10;;;6.97;;
2838;SDS011;1427;48.510;9.060;2023-07-24T14:10:52;49.03;;;5.20;;
2838;SDS011;1427;48.510;9.060;2023-07-24T14:13:20;50.50;;;5.77;;
2838;SDS011;1427;48.510;9.060;2023-07-24T14:15:50;51.50;;;4.80;;
2838;SDS011;1427;48.510;9.060;2023-07-24T14:18:18;49.80;;;5.13;;
2838;SDS011;1427;48.510;9.060;2023-07-24T14:20:46;49.10;;;5.10;;
2838;SDS011;1427;48.510;9.060;2023-07-24T14:23:14;49.20;;;4.67;;
2838;SDS011;1427;48.510;9.060;2023-07-24T14:25:42;50.53;;;5.27;;
2838;SDS011;1427;48.510;9.060;2023-07-24T14:28:10;52.90;;;5.13;;
2838;SDS011;1427;48.510;9.060;2023-07-24T14:30:39;51.97;;;5.63;;
2838;SDS011;1427;48.510;9.060;2023-07-24T14:33:08;49.30;;;4.90;;
2838;SDS011;1427;48.510;9.060;2023-07-24T14:35:36;50.17;;;4.17;;
2838;SDS011;1427;48.510;9.060;2023-07-24T14:38:04;51.40;;;5.20;;
2838;SDS011;1427;48.510;9.060;2023-07-24T14:40:32;49.20;;;4.97;;
2838;SDS011;1427;48.510;9.060;2023-07-24T14:43:01;49.83;;;5.17;;
2838;SDS011;1427;48.510;9.060;2023-07-24T14:45:33;49.07;;;5.00;;
2838;SDS011;1427;48.510;9.060;2023-07-24T14:48:01;49.77;;;5.70;;
2838;SDS011;1427;48.510;9.060;2023-07-24T14:50:30;48.47;;;4.90;;
2838;SDS011;1427;48.510;9.060;2023-07-24T14:52:59;51.33;;;6.90;;
2838;SDS011;1427;48.510;9.060;2023-07-24T14:55:27;50.10;;;5.20;;
2838;SDS011;1427;48.510;9.060;2023-07-24T14:57:55;49.40;;;5.90;;
2838;SDS011;1427;48.510;9.060;2023-07-24T15:00:23;54.13;;;5.10;;
2838;SDS011;1427;48.510;9.060;2023-07-24T15:02:54;50.87;;;5.37;;
2838;SDS011;1427;48.510;9.060;2023-07-24T15:05:22;49.47;;;5.23;;
2838;SDS011;1427;48.510;9.060;2023-07-24T15:07:53;50.10;;;4.90;;
2838;SDS011;1427;48.510;9.060;2023-07-24T15:10:21;49.53;;;4.80;;
2838;SDS011;1427;48.510;9.060;2023-07-24T15:12:49;49.27;;;4.80;;